Time;durP1;ratioP1;P1;durP2;ratioP2;P2;SDS_P1;SDS_P2;PMS_P1;PMS_P2;Temp;Humidity;BMP_temperature;BMP_pressure;BME280_temperature;BME280_humidity;BME280_pressure;Samples;Min_cycle;Max_cycle;Signal;HPM_P1;HPM_P2
2023/06/03 00:01:19;;;;;;;32.28;21.70;;;;;;;;;;5083278;28;20056;-52
2023/06/03 00:03:46;;;;;;;45.80;26.63;;;;;;;;;;5085616;28;20049;-53
2023/06/03 00:06:13;;;;;;;36.88;23.25;;;;;;;;;;5085482;28;20053;-53
2023/06/03 00:08:40;;;;;;;17.98;11.60;;;;;;;;;;5068884;28;20052;-55
2023/06/03 00:11:06;;;;;;;9.88;7.03;;;;;;;;;;5079940;28;20088;-55
2023/06/03 00:13:33;;;;;;;5.03;4.03;;;;;;;;;;5078408;28;20059;-55
2023/06/03 00:15:59;;;;;;;6.38;2.95;;;;;;;;;;5079190;28;20537;-57
2023/06/03 00:18:26;;;;;;;7.05;3.45;;;;;;;;;;5070646;28;20056;-57
2023/06/03 00:20:55;;;;;;;5.07;3.15;;;;;;;;;;5066192;28;20052;-56
2023/06/03 00:23:21;;;;;;;2.80;2.17;;;;;;;;;;5075080;28;20087;-58
2023/06/03 00:25:48;;;;;;;3.92;2.72;;;;;;;;;;5078628;28;20132;-54
2023/06/03 00:28:15;;;;;;;3.92;2.60;;;;;;;;;;5068971;28;20110;-58
2023/06/03 00:30:41;;;;;;;6.30;2.60;;;;;;;;;;5065134;28;20089;-52
2023/06/03 00:33:07;;;;;;;3.97;2.90;;;;;;;;;;5073277;28;20107;-57
2023/06/03 00:35:34;;;;;;;6.85;4.47;;;;;;;;;;5065941;28;20052;-54
2023/06/03 00:38:01;;;;;;;14.52;11.30;;;;;;;;;;5066783;28;20112;-56
2023/06/03 00:40:28;;;;;;;8.30;4.50;;;;;;;;;;5075054;28;20532;-56
2023/06/03 00:42:58;;;;;;;11.90;6.80;;;;;;;;;;5067877;28;20580;-53
2023/06/03 00:45:24;;;;;;;13.25;8.57;;;;;;;;;;5084383;28;20506;-53
2023/06/03 00:47:51;;;;;;;17.25;12.43;;;;;;;;;;5084354;28;20076;-56
2023/06/03 00:50:18;;;;;;;17.80;6.97;;;;;;;;;;5067940;28;20049;-57
2023/06/03 00:52:45;;;;;;;6.38;5.53;;;;;;;;;;5069054;28;20080;-56
2023/06/03 00:55:12;;;;;;;6.05;4.18;;;;;;;;;;5075315;28;20106;-56
2023/06/03 00:57:39;;;;;;;5.15;3.00;;;;;;;;;;5066703;28;20055;-57
2023/06/03 01:00:06;;;;;;;3.83;2.72;;;;;;;;;;5069454;28;20052;-57
2023/06/03 01:02:36;;;;;;;9.73;3.58;;;;;;;;;;5079776;28;20053;-58
2023/06/03 01:05:04;;;;;;;3.55;2.60;;;;;;;;;;5067107;28;20538;-57
2023/06/03 01:07:48;;;;;;;4.90;2.83;;;;;;;;;;5065329;28;20099;-58
2023/06/03 01:10:19;;;;;;;5.88;3.10;;;;;;;;;;5074977;28;20041;-56
2023/06/03 01:12:51;;;;;;;6.45;2.85;;;;;;;;;;5074924;28;20057;-57
2023/06/03 01:15:20;;;;;;;4.38;3.15;;;;;;;;;;5063693;28;20064;-56
2023/06/03 01:17:48;;;;;;;7.22;2.95;;;;;;;;;;5069535;28;20495;-57
2023/06/03 01:20:16;;;;;;;7.07;3.20;;;;;;;;;;5077813;28;20056;-55
2023/06/03 01:22:44;;;;;;;6.75;2.95;;;;;;;;;;5065728;28;20051;-55
2023/06/03 01:25:11;;;;;;;5.32;2.70;;;;;;;;;;5067268;28;20059;-57
2023/06/03 01:27:40;;;;;;;3.63;2.53;;;;;;;;;;5074950;28;20056;-55
2023/06/03 01:30:07;;;;;;;7.38;3.28;;;;;;;;;;5069777;28;20136;-56
2023/06/03 01:32:35;;;;;;;3.45;2.85;;;;;;;;;;5078734;28;20064;-52
2023/06/03 01:35:02;;;;;;;3.45;2.90;;;;;;;;;;5074448;28;20107;-54
2023/06/03 01:37:29;;;;;;;4.32;3.00;;;;;;;;;;5084228;28;20107;-52
2023/06/03 01:39:55;;;;;;;3.42;2.85;;;;;;;;;;5067983;28;20057;-54
2023/06/03 01:42:22;;;;;;;3.13;2.60;;;;;;;;;;5064730;28;20053;-53
2023/06/03 01:44:49;;;;;;;5.78;2.67;;;;;;;;;;5063927;28;20103;-54
2023/06/03 01:47:15;;;;;;;5.25;3.60;;;;;;;;;;5079395;28;20067;-52
2023/06/03 01:49:42;;;;;;;4.80;3.55;;;;;;;;;;5071308;28;20041;-53
2023/06/03 01:52:08;;;;;;;4.32;3.53;;;;;;;;;;5070319;28;20088;-51
2023/06/03 01:54:34;;;;;;;5.00;3.03;;;;;;;;;;5072544;28;20114;-53
2023/06/03 01:57:01;;;;;;;5.75;2.63;;;;;;;;;;5080969;28;20091;-58
2023/06/03 01:59:28;;;;;;;6.63;3.13;;;;;;;;;;5076206;28;20057;-53
2023/06/03 02:01:56;;;;;;;3.28;2.03;;;;;;;;;;5071351;28;20083;-57
2023/06/03 02:04:22;;;;;;;7.40;2.92;;;;;;;;;;5071132;28;20056;-55
2023/06/03 02:06:52;;;;;;;5.70;2.50;;;;;;;;;;5071790;28;20069;-55
2023/06/03 02:09:21;;;;;;;8.35;2.60;;;;;;;;;;5076275;28;20103;-57
2023/06/03 02:11:50;;;;;;;8.77;4.35;;;;;;;;;;5064313;28;20279;-57
2023/06/03 02:14:17;;;;;;;4.70;3.40;;;;;;;;;;5081867;28;20060;-55
2023/06/03 02:16:43;;;;;;;5.82;3.00;;;;;;;;;;5083866;28;20106;-52
2023/06/03 02:19:14;;;;;;;5.15;3.47;;;;;;;;;;5083535;28;20056;-55
2023/06/03 02:21:41;;;;;;;3.92;3.00;;;;;;;;;;5075867;28;20982;-56
2023/06/03 02:24:08;;;;;;;7.20;4.05;;;;;;;;;;5074558;28;20095;-55
2023/06/03 02:26:35;;;;;;;5.50;3.45;;;;;;;;;;5077458;28;20084;-56
2023/06/03 02:29:02;;;;;;;4.18;2.90;;;;;;;;;;5069249;28;20045;-53
2023/06/03 02:31:29;;;;;;;5.28;2.88;;;;;;;;;;5081708;28;20053;-55
2023/06/03 02:33:56;;;;;;;3.47;2.85;;;;;;;;;;5079772;28;20052;-54
2023/06/03 02:36:22;;;;;;;5.75;3.88;;;;;;;;;;5074714;28;20049;-57
2023/06/03 02:38:48;;;;;;;5.25;4.45;;;;;;;;;;5072754;28;20053;-54
2023/06/03 02:41:15;;;;;;;6.70;3.13;;;;;;;;;;5077801;28;20076;-56
2023/06/03 02:43:41;;;;;;;5.03;3.38;;;;;;;;;;5079160;28;20138;-57
2023/06/03 02:46:08;;;;;;;2.67;2.40;;;;;;;;;;5083117;28;20135;-55
2023/06/03 02:48:34;;;;;;;3.53;2.60;;;;;;;;;;5071119;28;20127;-58
2023/06/03 02:51:01;;;;;;;3.75;2.40;;;;;;;;;;5063145;28;20526;-54
2023/06/03 02:53:27;;;;;;;8.13;2.83;;;;;;;;;;5076375;28;20056;-51
2023/06/03 02:55:54;;;;;;;5.35;2.70;;;;;;;;;;5071455;28;20560;-51
2023/06/03 02:58:20;;;;;;;6.68;2.63;;;;;;;;;;5064181;28;20053;-56
2023/06/03 03:00:46;;;;;;;6.85;3.25;;;;;;;;;;5081797;28;20055;-57
2023/06/03 03:03:13;;;;;;;8.32;6.95;;;;;;;;;;5064295;28;20059;-58
2023/06/03 03:05:40;;;;;;;19.60;10.95;;;;;;;;;;5061978;28;20049;-56
2023/06/03 03:08:06;;;;;;;18.50;7.78;;;;;;;;;;5074106;28;20055;-52
2023/06/03 03:10:33;;;;;;;14.60;6.10;;;;;;;;;;5076223;28;20485;-54
2023/06/03 03:12:59;;;;;;;9.00;5.75;;;;;;;;;;5080841;28;20098;-53
2023/06/03 03:15:26;;;;;;;13.65;5.85;;;;;;;;;;5069535;28;20045;-53
2023/06/03 03:17:52;;;;;;;11.02;5.97;;;;;;;;;;5069203;28;20144;-57
2023/06/03 03:20:18;;;;;;;12.63;7.13;;;;;;;;;;5065124;28;20060;-54
2023/06/03 03:22:45;;;;;;;12.23;7.40;;;;;;;;;;5081409;28;20507;-57
2023/06/03 03:25:11;;;;;;;13.55;7.97;;;;;;;;;;5074003;28;20059;-57
2023/06/03 03:27:38;;;;;;;20.23;12.35;;;;;;;;;;5070568;28;20048;-53
2023/06/03 03:30:05;;;;;;;17.75;9.23;;;;;;;;;;5069196;28;20052;-55
2023/06/03 03:32:31;;;;;;;10.70;6.95;;;;;;;;;;5077893;28;20066;-55
2023/06/03 03:35:04;;;;;;;11.57;6.70;;;;;;;;;;5080976;28;20518;-57
2023/06/03 03:37:30;;;;;;;9.98;5.15;;;;;;;;;;5086811;28;20053;-55
2023/06/03 03:39:56;;;;;;;6.32;3.58;;;;;;;;;;5075104;28;20122;-56
2023/06/03 03:42:23;;;;;;;6.68;3.78;;;;;;;;;;5074208;28;20052;-56
2023/06/03 03:44:49;;;;;;;4.10;2.85;;;;;;;;;;5067904;28;20060;-55
2023/06/03 03:47:19;;;;;;;5.00;3.20;;;;;;;;;;5073800;28;20549;-55
2023/06/03 03:49:46;;;;;;;5.07;3.13;;;;;;;;;;5074950;28;20098;-55
2023/06/03 03:52:13;;;;;;;4.45;3.20;;;;;;;;;;5077261;28;20573;-52
2023/06/03 03:54:48;;;;;;;8.27;4.88;;;;;;;;;;5068299;28;20048;-56
2023/06/03 03:57:16;;;;;;;11.90;4.72;;;;;;;;;;5066141;28;20057;-53
2023/06/03 03:59:42;;;;;;;7.05;5.32;;;;;;;;;;5082831;28;20063;-57
2023/06/03 04:02:09;;;;;;;32.13;18.40;;;;;;;;;;5085408;28;20122;-54
2023/06/03 04:04:37;;;;;;;51.30;29.38;;;;;;;;;;5079187;28;20473;-55
2023/06/03 04:07:04;;;;;;;53.35;29.15;;;;;;;;;;5085815;28;20916;-55
2023/06/03 04:09:30;;;;;;;52.08;28.10;;;;;;;;;;5067962;28;20107;-56
2023/06/03 04:11:57;;;;;;;44.97;21.88;;;;;;;;;;5082159;28;20158;-56
2023/06/03 04:14:35;;;;;;;56.55;31.50;;;;;;;;;;5065082;28;20076;-52
2023/06/03 04:17:02;;;;;;;31.73;18.08;;;;;;;;;;5065352;28;20057;-56
2023/06/03 04:19:32;;;;;;;44.30;24.35;;;;;;;;;;5073171;28;20055;-57
2023/06/03 04:21:59;;;;;;;27.80;17.20;;;;;;;;;;5084040;28;20076;-56
2023/06/03 04:24:26;;;;;;;12.82;7.55;;;;;;;;;;5068937;28;20052;-54
2023/06/03 04:26:53;;;;;;;9.27;5.03;;;;;;;;;;5066630;28;20060;-55
2023/06/03 04:29:19;;;;;;;3.95;2.80;;;;;;;;;;5069782;28;20769;-56
2023/06/03 04:31:46;;;;;;;5.20;3.17;;;;;;;;;;5081421;28;20091;-54
2023/06/03 04:34:12;;;;;;;6.72;3.17;;;;;;;;;;5064540;28;20049;-52
2023/06/03 04:36:38;;;;;;;2.45;1.73;;;;;;;;;;5081641;28;20053;-55
2023/06/03 04:39:05;;;;;;;4.35;2.55;;;;;;;;;;5084434;28;20059;-53
2023/06/03 04:41:32;;;;;;;2.35;2.00;;;;;;;;;;5085946;28;20114;-54
2023/06/03 04:44:01;;;;;;;4.22;1.90;;;;;;;;;;5083159;28;20126;-56
2023/06/03 04:46:31;;;;;;;5.47;2.47;;;;;;;;;;5075075;28;20930;-54
2023/06/03 04:49:01;;;;;;;2.47;1.73;;;;;;;;;;5085044;28;20044;-53
2023/06/03 04:51:28;;;;;;;3.70;1.73;;;;;;;;;;5073240;28;20057;-52
2023/06/03 04:53:56;;;;;;;1.58;1.30;;;;;;;;;;5072933;28;20049;-53
2023/06/03 04:56:24;;;;;;;2.20;1.55;;;;;;;;;;5077439;28;20150;-54
2023/06/03 04:58:54;;;;;;;1.35;1.23;;;;;;;;;;5077498;28;20052;-53
2023/06/03 05:01:24;;;;;;;1.90;1.27;;;;;;;;;;5083031;28;20139;-54
2023/06/03 05:03:51;;;;;;;2.50;1.70;;;;;;;;;;5081722;28;21353;-53
2023/06/03 05:06:19;;;;;;;3.65;1.58;;;;;;;;;;5083356;28;20094;-54
2023/06/03 05:08:49;;;;;;;2.33;1.40;;;;;;;;;;5085256;28;20508;-57
2023/06/03 05:11:16;;;;;;;2.53;1.38;;;;;;;;;;5070117;28;20061;-55
2023/06/03 05:13:42;;;;;;;3.78;1.33;;;;;;;;;;5070249;28;20064;-55
2023/06/03 05:16:09;;;;;;;4.32;1.27;;;;;;;;;;5071220;28;20059;-56
2023/06/03 05:18:36;;;;;;;1.95;1.45;;;;;;;;;;5066403;28;20521;-54
2023/06/03 05:21:03;;;;;;;2.15;1.55;;;;;;;;;;5066189;28;20176;-53
2023/06/03 05:23:29;;;;;;;3.53;1.52;;;;;;;;;;5076563;28;20057;-56
2023/06/03 05:25:56;;;;;;;3.08;1.35;;;;;;;;;;5065133;28;20057;-58
2023/06/03 05:28:24;;;;;;;1.88;1.25;;;;;;;;;;5069516;28;20065;-57
2023/06/03 05:30:50;;;;;;;2.47;1.38;;;;;;;;;;5084700;28;20448;-56
2023/06/03 05:33:23;;;;;;;3.05;1.30;;;;;;;;;;5076875;28;20304;-56
2023/06/03 05:35:50;;;;;;;2.53;1.25;;;;;;;;;;5065603;28;20056;-57
2023/06/03 05:38:16;;;;;;;2.00;1.15;;;;;;;;;;5064380;28;20144;-56
2023/06/03 05:40:43;;;;;;;1.17;1.08;;;;;;;;;;5081760;28;20048;-53
2023/06/03 05:43:10;;;;;;;1.13;1.02;;;;;;;;;;5081239;28;20056;-56
2023/06/03 05:45:36;;;;;;;1.73;1.23;;;;;;;;;;5074980;28;20911;-55
2023/06/03 05:48:03;;;;;;;2.15;0.93;;;;;;;;;;5068090;28;20103;-57
2023/06/03 05:50:29;;;;;;;2.72;1.20;;;;;;;;;;5078552;28;20053;-55
2023/06/03 05:52:56;;;;;;;1.10;0.98;;;;;;;;;;5078853;28;20061;-58
2023/06/03 05:55:22;;;;;;;1.63;1.13;;;;;;;;;;5070350;28;20144;-56
2023/06/03 05:57:48;;;;;;;2.97;1.45;;;;;;;;;;5065103;28;20110;-56
2023/06/03 06:00:15;;;;;;;2.08;1.40;;;;;;;;;;5077094;28;20052;-56
2023/06/03 06:02:41;;;;;;;2.90;1.48;;;;;;;;;;5085029;28;20106;-57
2023/06/03 06:05:08;;;;;;;1.40;1.30;;;;;;;;;;5070870;28;20053;-57
2023/06/03 06:07:34;;;;;;;1.70;1.30;;;;;;;;;;5082573;28;20067;-56
2023/06/03 06:10:01;;;;;;;1.23;0.93;;;;;;;;;;5076189;28;20060;-40
2023/06/03 06:12:27;;;;;;;1.88;1.20;;;;;;;;;;5080334;28;20448;-53
2023/06/03 06:14:53;;;;;;;2.60;1.20;;;;;;;;;;5071852;28;20136;-53
2023/06/03 06:17:20;;;;;;;1.75;1.40;;;;;;;;;;5082326;28;20076;-55
2023/06/03 06:19:47;;;;;;;3.40;1.40;;;;;;;;;;5077856;28;20052;-57
2023/06/03 06:22:13;;;;;;;4.20;1.30;;;;;;;;;;5064987;28;20087;-56
2023/06/03 06:24:41;;;;;;;2.13;1.30;;;;;;;;;;5080706;28;20056;-55
2023/06/03 06:27:07;;;;;;;2.35;1.40;;;;;;;;;;5082749;28;20098;-55
2023/06/03 06:29:34;;;;;;;3.72;1.30;;;;;;;;;;5084665;28;20597;-59
2023/06/03 06:32:01;;;;;;;1.83;1.20;;;;;;;;;;5084476;28;20059;-56
2023/06/03 06:34:31;;;;;;;1.73;1.20;;;;;;;;;;5084813;28;20545;-55
2023/06/03 06:36:58;;;;;;;4.43;1.40;;;;;;;;;;5075988;28;20064;-52
2023/06/03 06:39:28;;;;;;;2.83;1.42;;;;;;;;;;5082630;28;20055;-55
2023/06/03 06:41:56;;;;;;;1.20;1.10;;;;;;;;;;5084357;28;20952;-54
2023/06/03 06:44:23;;;;;;;3.20;1.30;;;;;;;;;;5070169;28;20078;-58
2023/06/03 06:46:53;;;;;;;1.63;1.23;;;;;;;;;;5080318;28;20570;-57
2023/06/03 06:49:20;;;;;;;2.15;1.33;;;;;;;;;;5077738;28;20056;-57
2023/06/03 06:51:49;;;;;;;1.98;1.27;;;;;;;;;;5073075;28;20136;-57
2023/06/03 06:54:16;;;;;;;6.90;1.27;;;;;;;;;;5079005;28;20529;-57
2023/06/03 06:56:42;;;;;;;4.88;1.58;;;;;;;;;;5070377;28;20140;-57
2023/06/03 06:59:08;;;;;;;2.28;1.40;;;;;;;;;;5071286;28;20057;-57
2023/06/03 07:01:35;;;;;;;2.30;1.35;;;;;;;;;;5077064;28;20080;-56
2023/06/03 07:04:01;;;;;;;2.55;1.08;;;;;;;;;;5067887;28;20048;-58
2023/06/03 07:06:28;;;;;;;4.75;1.30;;;;;;;;;;5074211;28;20529;-57
2023/06/03 07:08:54;;;;;;;2.30;1.10;;;;;;;;;;5085457;28;20502;-58
2023/06/03 07:11:22;;;;;;;2.03;1.50;;;;;;;;;;5066096;28;20079;-57
2023/06/03 07:13:52;;;;;;;2.40;1.30;;;;;;;;;;5073157;28;20720;-57
2023/06/03 07:16:18;;;;;;;2.13;1.40;;;;;;;;;;5088027;28;20053;-58
2023/06/03 07:18:45;;;;;;;2.20;1.15;;;;;;;;;;5076542;28;20084;-57
2023/06/03 07:21:11;;;;;;;1.92;1.27;;;;;;;;;;5066877;28;20057;-57
2023/06/03 07:23:47;;;;;;;2.28;1.60;;;;;;;;;;5067181;28;20176;-58
2023/06/03 07:26:14;;;;;;;3.47;1.50;;;;;;;;;;5072898;28;20053;-58
2023/06/03 07:28:40;;;;;;;2.40;1.00;;;;;;;;;;5067032;28;20434;-57
2023/06/03 07:31:09;;;;;;;1.23;1.13;;;;;;;;;;5078150;28;20056;-57
2023/06/03 07:33:52;;;;;;;7.30;1.40;;;;;;;;;;5086082;28;20055;-58
2023/06/03 07:36:20;;;;;;;2.30;1.33;;;;;;;;;;5078508;28;20518;-56
2023/06/03 07:38:49;;;;;;;1.70;1.35;;;;;;;;;;5067119;28;20592;-58
2023/06/03 07:41:22;;;;;;;1.38;1.25;;;;;;;;;;5069682;28;20926;-55
2023/06/03 07:43:48;;;;;;;1.55;1.38;;;;;;;;;;5087301;28;20426;-58
2023/06/03 07:46:15;;;;;;;2.58;1.42;;;;;;;;;;5084323;28;20895;-58
2023/06/03 07:48:42;;;;;;;2.25;1.30;;;;;;;;;;5069065;28;20077;-58
2023/06/03 07:51:17;;;;;;;1.88;1.60;;;;;;;;;;5083960;28;20076;-58
2023/06/03 07:53:43;;;;;;;1.23;1.13;;;;;;;;;;5086650;28;20048;-57
2023/06/03 07:56:10;;;;;;;1.73;1.05;;;;;;;;;;5087425;28;20615;-58
2023/06/03 07:58:37;;;;;;;1.63;1.15;;;;;;;;;;5087832;28;20110;-58
2023/06/03 08:01:04;;;;;;;4.65;1.45;;;;;;;;;;5087338;28;20103;-55
2023/06/03 08:03:32;;;;;;;1.65;1.25;;;;;;;;;;5075984;28;20076;-57
2023/06/03 08:05:58;;;;;;;1.30;1.05;;;;;;;;;;5067499;28;20404;-56
2023/06/03 08:08:33;;;;;;;3.47;1.40;;;;;;;;;;5065724;28;20049;-59
2023/06/03 08:11:02;;;;;;;1.80;1.20;;;;;;;;;;5065844;28;20151;-57
2023/06/03 08:13:29;;;;;;;1.75;1.20;;;;;;;;;;5067022;28;20076;-59
2023/06/03 08:15:55;;;;;;;1.75;1.08;;;;;;;;;;5086578;28;20063;-56
2023/06/03 08:18:41;;;;;;;0.82;0.80;;;;;;;;;;5085696;28;20128;-59
2023/06/03 08:21:07;;;;;;;0.98;0.90;;;;;;;;;;5086112;28;20056;-59
2023/06/03 08:23:34;;;;;;;1.77;1.00;;;;;;;;;;5080431;28;20096;-59
2023/06/03 08:26:01;;;;;;;1.13;0.98;;;;;;;;;;5066282;28;20060;-58
2023/06/03 08:28:27;;;;;;;1.77;0.60;;;;;;;;;;5078102;28;20088;-56
2023/06/03 08:30:54;;;;;;;1.20;0.90;;;;;;;;;;5086380;28;20140;-58
2023/06/03 08:33:20;;;;;;;1.52;0.85;;;;;;;;;;5086197;28;20053;-53
2023/06/03 08:35:47;;;;;;;5.95;1.30;;;;;;;;;;5081305;28;20144;-52
2023/06/03 08:38:16;;;;;;;1.27;1.02;;;;;;;;;;5069077;28;20096;-57
2023/06/03 08:40:47;;;;;;;1.27;0.73;;;;;;;;;;5085637;28;20122;-58
2023/06/03 08:43:14;;;;;;;1.80;0.95;;;;;;;;;;5086371;28;21049;-54
2023/06/03 08:46:03;;;;;;;0.60;0.60;;;;;;;;;;5086051;28;20087;-53
2023/06/03 08:48:42;;;;;;;2.80;0.80;;;;;;;;;;5061329;28;20044;-57
2023/06/03 08:51:10;;;;;;;0.70;0.70;;;;;;;;;;5070880;28;20186;-58
2023/06/03 08:53:50;;;;;;;2.58;0.60;;;;;;;;;;5084177;28;20252;-58
2023/06/03 08:56:17;;;;;;;0.57;0.50;;;;;;;;;;5082942;28;20063;-57
2023/06/03 08:59:01;;;;;;;0.68;0.68;;;;;;;;;;5079525;28;20114;-58
2023/06/03 09:01:31;;;;;;;0.70;0.50;;;;;;;;;;5085581;28;20049;-57
2023/06/03 09:03:58;;;;;;;3.22;0.60;;;;;;;;;;5085566;28;20080;-54
2023/06/03 09:06:24;;;;;;;1.00;0.68;;;;;;;;;;5085067;28;20144;-57
2023/06/03 09:08:51;;;;;;;2.03;0.90;;;;;;;;;;5085726;28;20810;-56
2023/06/03 09:11:18;;;;;;;1.13;0.75;;;;;;;;;;5076765;28;20110;-59
2023/06/03 09:13:46;;;;;;;0.60;0.55;;;;;;;;;;5083737;28;20087;-56
2023/06/03 09:16:13;;;;;;;1.30;0.88;;;;;;;;;;5064920;28;20426;-54
2023/06/03 09:18:42;;;;;;;3.17;0.90;;;;;;;;;;5066158;28;20063;-58
2023/06/03 09:21:10;;;;;;;1.60;0.68;;;;;;;;;;5084606;28;20052;-55
2023/06/03 09:23:40;;;;;;;1.23;0.70;;;;;;;;;;5085744;28;20058;-58
2023/06/03 09:26:07;;;;;;;2.20;1.13;;;;;;;;;;5069035;28;20058;-58
2023/06/03 09:28:35;;;;;;;3.47;0.85;;;;;;;;;;5065016;28;20518;-59
2023/06/03 09:31:01;;;;;;;1.67;1.23;;;;;;;;;;5073122;28;20135;-58
2023/06/03 09:33:28;;;;;;;1.00;0.65;;;;;;;;;;5071939;28;20056;-58
2023/06/03 09:36:05;;;;;;;1.52;0.80;;;;;;;;;;5086105;28;20464;-59
2023/06/03 09:38:50;;;;;;;1.38;0.60;;;;;;;;;;5072879;28;20056;-59
2023/06/03 09:41:21;;;;;;;2.72;0.80;;;;;;;;;;5071703;28;20052;-59
2023/06/03 09:43:56;;;;;;;1.60;0.70;;;;;;;;;;5084423;28;20057;-58
2023/06/03 09:46:23;;;;;;;0.80;0.70;;;;;;;;;;5077675;28;20056;-59
2023/06/03 09:48:50;;;;;;;1.33;0.70;;;;;;;;;;5064552;28;20045;-59
2023/06/03 09:51:16;;;;;;;2.33;0.85;;;;;;;;;;5063973;28;20048;-59
2023/06/03 09:53:43;;;;;;;1.85;1.10;;;;;;;;;;5096589;28;20057;-58
2023/06/03 09:56:23;;;;;;;5.15;0.85;;;;;;;;;;5070713;28;20116;-58
2023/06/03 09:59:07;;;;;;;3.03;1.00;;;;;;;;;;5064513;28;20139;-59
2023/06/03 10:01:34;;;;;;;0.60;0.60;;;;;;;;;;5063824;28;20048;-58
2023/06/03 10:04:00;;;;;;;1.88;0.70;;;;;;;;;;5064391;28;20055;-58
2023/06/03 10:06:27;;;;;;;3.78;1.05;;;;;;;;;;5064634;28;20057;-58
2023/06/03 10:08:54;;;;;;;0.85;0.80;;;;;;;;;;5064896;28;20088;-59
2023/06/03 10:11:22;;;;;;;2.03;0.70;;;;;;;;;;5064269;28;20091;-59
2023/06/03 10:14:00;;;;;;;1.17;0.80;;;;;;;;;;5064224;28;20087;-59
2023/06/03 10:16:27;;;;;;;1.10;0.75;;;;;;;;;;5064756;28;20084;-59
2023/06/03 10:18:53;;;;;;;0.70;0.50;;;;;;;;;;5064078;28;20048;-58
2023/06/03 10:21:21;;;;;;;1.75;0.60;;;;;;;;;;5078379;28;20056;-59
2023/06/03 10:23:48;;;;;;;0.90;0.60;;;;;;;;;;5084180;28;20422;-58
2023/06/03 10:26:16;;;;;;;0.70;0.60;;;;;;;;;;5083973;28;20052;-57
2023/06/03 10:28:45;;;;;;;2.97;0.88;;;;;;;;;;5084025;28;20643;-58
2023/06/03 10:31:12;;;;;;;0.75;0.70;;;;;;;;;;5083457;28;20060;-57
2023/06/03 10:33:40;;;;;;;0.80;0.70;;;;;;;;;;5083581;28;20053;-56
2023/06/03 10:36:06;;;;;;;0.70;0.70;;;;;;;;;;5083389;28;20071;-59
2023/06/03 10:38:33;;;;;;;1.73;1.02;;;;;;;;;;5084482;28;20060;-59
2023/06/03 10:41:01;;;;;;;1.20;0.70;;;;;;;;;;5083941;28;20052;-58
2023/06/03 10:43:29;;;;;;;0.77;0.60;;;;;;;;;;5084191;28;20052;-59
2023/06/03 10:45:57;;;;;;;1.13;0.60;;;;;;;;;;5084388;28;20061;-59
2023/06/03 10:48:24;;;;;;;1.00;0.70;;;;;;;;;;5083632;28;20808;-59
2023/06/03 10:50:54;;;;;;;1.80;0.65;;;;;;;;;;5083735;28;20206;-59
2023/06/03 10:53:27;;;;;;;1.10;0.60;;;;;;;;;;5082995;28;20516;-59
2023/06/03 10:56:13;;;;;;;1.95;0.50;;;;;;;;;;5084298;28;20494;-57
2023/06/03 10:58:41;;;;;;;0.93;0.40;;;;;;;;;;5083630;28;20416;-59
2023/06/03 11:01:07;;;;;;;0.73;0.73;;;;;;;;;;5083900;28;20068;-58
2023/06/03 11:03:59;;;;;;;1.02;0.63;;;;;;;;;;5083047;28;20106;-59
2023/06/03 11:06:25;;;;;;;0.50;0.50;;;;;;;;;;5077753;28;20067;-59
2023/06/03 11:09:03;;;;;;;2.20;0.60;;;;;;;;;;5080361;28;20145;-59
2023/06/03 11:11:42;;;;;;;1.15;0.70;;;;;;;;;;5083439;28;20066;-59
2023/06/03 11:14:08;;;;;;;6.05;0.68;;;;;;;;;;5083546;28;20053;-59
2023/06/03 11:16:54;;;;;;;2.28;0.55;;;;;;;;;;5083278;28;20053;-59
2023/06/03 11:19:33;;;;;;;5.32;0.70;;;;;;;;;;5083720;28;20075;-59
2023/06/03 11:22:07;;;;;;;1.75;0.65;;;;;;;;;;5083213;28;20056;-59
2023/06/03 11:24:40;;;;;;;1.73;0.70;;;;;;;;;;5063925;28;20332;-60
2023/06/03 11:27:09;;;;;;;2.08;0.50;;;;;;;;;;5063213;28;20423;-59
2023/06/03 11:29:51;;;;;;;5.57;0.60;;;;;;;;;;5063237;28;20052;-59
2023/06/03 11:32:17;;;;;;;1.95;0.60;;;;;;;;;;5063000;28;20850;-59
2023/06/03 11:34:44;;;;;;;0.60;0.43;;;;;;;;;;5061804;28;20053;-58
2023/06/03 11:37:11;;;;;;;2.35;0.82;;;;;;;;;;5065901;28;20507;-59
2023/06/03 11:39:56;;;;;;;2.85;0.63;;;;;;;;;;5083420;28;20095;-57
2023/06/03 11:42:23;;;;;;;;;;;;;;;;;;5071606;28;20059;-60
2023/06/03 11:44:49;;;;;;;0.77;0.50;;;;;;;;;;5074779;28;46990;-62
2023/06/03 11:47:16;;;;;;;0.60;0.60;;;;;;;;;;5086776;28;20083;-40
2023/06/03 11:49:42;;;;;;;0.45;0.40;;;;;;;;;;5085450;28;20518;-59
2023/06/03 11:52:09;;;;;;;2.13;0.40;;;;;;;;;;5082699;28;20978;-46
2023/06/03 11:54:36;;;;;;;0.50;0.50;;;;;;;;;;5088292;28;20047;-59
2023/06/03 11:57:03;;;;;;;1.10;0.47;;;;;;;;;;5081846;28;20052;-59
2023/06/03 11:59:31;;;;;;;6.75;0.65;;;;;;;;;;5087175;28;20048;-59
2023/06/03 12:01:59;;;;;;;0.35;0.35;;;;;;;;;;5088007;28;20056;-59
2023/06/03 12:04:26;;;;;;;0.40;0.40;;;;;;;;;;5087249;28;20048;-58
2023/06/03 12:06:52;;;;;;;0.52;0.52;;;;;;;;;;5089123;28;20142;-57
2023/06/03 12:09:20;;;;;;;1.00;0.70;;;;;;;;;;5086128;28;20734;-59
2023/06/03 12:11:46;;;;;;;0.47;0.47;;;;;;;;;;5086428;28;20053;-57
2023/06/03 12:14:26;;;;;;;1.05;0.45;;;;;;;;;;5075527;28;20056;-57
2023/06/03 12:16:54;;;;;;;4.82;0.35;;;;;;;;;;5081056;28;20749;-59
2023/06/03 12:19:21;;;;;;;0.50;0.50;;;;;;;;;;5078282;28;20086;-57
2023/06/03 12:21:54;;;;;;;7.03;0.55;;;;;;;;;;5078999;28;20072;-57
2023/06/03 12:24:26;;;;;;;1.38;0.50;;;;;;;;;;5083495;28;20056;-58
2023/06/03 12:26:54;;;;;;;0.82;0.65;;;;;;;;;;5086114;28;20941;-58
2023/06/03 12:29:21;;;;;;;0.57;0.52;;;;;;;;;;5077106;28;20064;-58
2023/06/03 12:31:57;;;;;;;1.13;0.43;;;;;;;;;;5065843;28;20395;-59
2023/06/03 12:34:31;;;;;;;0.45;0.43;;;;;;;;;;5065795;28;20064;-59
2023/06/03 12:36:57;;;;;;;0.30;0.30;;;;;;;;;;5066359;28;20061;-58
2023/06/03 12:39:37;;;;;;;0.57;0.47;;;;;;;;;;5066126;28;20100;-59
2023/06/03 12:42:04;;;;;;;1.65;0.47;;;;;;;;;;5065279;28;20060;-58
2023/06/03 12:44:30;;;;;;;0.75;0.50;;;;;;;;;;5066026;28;20064;-60
2023/06/03 12:47:00;;;;;;;2.75;0.50;;;;;;;;;;5066521;28;20539;-60
2023/06/03 12:49:27;;;;;;;1.83;0.50;;;;;;;;;;5065866;28;20110;-60
2023/06/03 12:52:07;;;;;;;0.60;0.60;;;;;;;;;;5066919;28;20045;-60
2023/06/03 12:54:47;;;;;;;0.77;0.47;;;;;;;;;;5080671;28;20052;-60
2023/06/03 12:57:14;;;;;;;13.73;0.77;;;;;;;;;;5085082;28;20498;-61
2023/06/03 12:59:59;;;;;;;0.50;0.50;;;;;;;;;;5072214;28;20052;-60
2023/06/03 13:02:25;;;;;;;0.85;0.38;;;;;;;;;;5065554;28;20140;-60
2023/06/03 13:04:52;;;;;;;0.77;0.57;;;;;;;;;;5072119;28;20053;-58
2023/06/03 13:07:19;;;;;;;0.93;0.50;;;;;;;;;;5085418;28;20106;-60
2023/06/03 13:09:45;;;;;;;1.30;0.60;;;;;;;;;;5080399;28;20130;-60
2023/06/03 13:12:11;;;;;;;0.43;0.43;;;;;;;;;;5065423;28;20951;-59
2023/06/03 13:14:38;;;;;;;1.48;0.65;;;;;;;;;;5083821;28;20106;-60
2023/06/03 13:17:05;;;;;;;1.45;0.52;;;;;;;;;;5064718;28;20076;-57
2023/06/03 13:19:34;;;;;;;2.15;0.77;;;;;;;;;;5065226;28;20103;-58
2023/06/03 13:22:01;;;;;;;1.02;0.60;;;;;;;;;;5065658;28;20576;-60
2023/06/03 13:24:27;;;;;;;0.70;0.70;;;;;;;;;;5070150;28;20144;-60
2023/06/03 13:26:54;;;;;;;0.60;0.60;;;;;;;;;;5084513;28;21328;-60
2023/06/03 13:29:20;;;;;;;3.10;1.25;;;;;;;;;;5083682;28;20048;-60
2023/06/03 13:31:47;;;;;;;2.80;0.90;;;;;;;;;;5084242;28;20114;-59
2023/06/03 13:34:13;;;;;;;3.15;1.13;;;;;;;;;;5083780;28;20057;-61
2023/06/03 13:36:39;;;;;;;3.13;1.08;;;;;;;;;;5095308;28;20058;-60
2023/06/03 13:39:06;;;;;;;1.15;0.60;;;;;;;;;;5072540;28;20096;-59
2023/06/03 13:41:32;;;;;;;5.78;0.60;;;;;;;;;;5080363;28;20083;-59
2023/06/03 13:43:58;;;;;;;0.40;0.40;;;;;;;;;;5063749;28;20053;-58
2023/06/03 13:46:25;;;;;;;2.03;0.85;;;;;;;;;;5065958;28;20501;-59
2023/06/03 13:48:51;;;;;;;1.95;0.82;;;;;;;;;;5067839;28;20058;-59
2023/06/03 13:51:18;;;;;;;0.85;0.60;;;;;;;;;;5065544;28;20122;-59
2023/06/03 13:53:44;;;;;;;1.70;0.73;;;;;;;;;;5065603;28;20142;-59
2023/06/03 13:56:10;;;;;;;0.88;0.52;;;;;;;;;;5065030;28;20061;-58
2023/06/03 13:58:37;;;;;;;0.80;0.60;;;;;;;;;;5064442;28;21302;-59
2023/06/03 14:01:03;;;;;;;0.50;0.50;;;;;;;;;;5063815;28;20053;-59
2023/06/03 14:03:30;;;;;;;6.65;1.55;;;;;;;;;;5065948;28;20763;-59
2023/06/03 14:05:56;;;;;;;2.55;1.05;;;;;;;;;;5064092;28;20568;-59
2023/06/03 14:08:24;;;;;;;4.03;0.80;;;;;;;;;;5067435;28;20053;-60
2023/06/03 14:10:51;;;;;;;2.05;0.50;;;;;;;;;;5068552;28;20052;-59
2023/06/03 14:13:17;;;;;;;6.18;0.80;;;;;;;;;;5065406;28;20272;-58
2023/06/03 14:15:43;;;;;;;1.75;0.60;;;;;;;;;;5078659;28;20091;-58
2023/06/03 14:18:10;;;;;;;0.73;0.45;;;;;;;;;;5084437;28;20047;-57
2023/06/03 14:20:37;;;;;;;0.55;0.40;;;;;;;;;;5083199;28;20080;-59
2023/06/03 14:23:03;;;;;;;4.57;0.85;;;;;;;;;;5084191;28;20049;-59
2023/06/03 14:25:29;;;;;;;0.55;0.55;;;;;;;;;;5088173;28;20052;-60
2023/06/03 14:27:57;;;;;;;0.80;0.55;;;;;;;;;;5084863;28;20057;-58
2023/06/03 14:30:23;;;;;;;0.40;0.40;;;;;;;;;;5092526;28;20427;-59
2023/06/03 14:33:06;;;;;;;0.70;0.68;;;;;;;;;;5076570;28;20152;-60
2023/06/03 14:35:32;;;;;;;1.23;0.47;;;;;;;;;;5083141;28;20147;-60
2023/06/03 14:37:59;;;;;;;2.75;0.60;;;;;;;;;;5082637;28;20052;-60
2023/06/03 14:40:25;;;;;;;0.40;0.40;;;;;;;;;;5070289;28;20053;-60
2023/06/03 14:42:51;;;;;;;0.85;0.75;;;;;;;;;;5067395;28;20087;-59
2023/06/03 14:45:18;;;;;;;3.85;0.95;;;;;;;;;;5083736;28;20615;-60
2023/06/03 14:47:45;;;;;;;3.58;0.70;;;;;;;;;;5084190;28;20057;-60